Terminal Aerodrome Forecast
Issued by NWS

Home | Current Version | Previous Version | Text Only | Print | Product List | Glossary On
Versions: 1 2 3 4 5 6 7 8 9 10 11 12 13 14 15
182
FTUS45 KTFX 232335
TAFHLN
TAF
KHLN 232335Z 2400/2424 VRB05KT P6SM SCT030 BKN060
      TEMPO 2411/2415 SCT010 BKN025
     FM241900 VRB04KT P6SM FEW040 SCT080=

USA.gov is the U.S. government's official web portal to all federal, state and local government web resources and services.